createdAt,value
2018-10-09T00:00:50.775Z,10.70
2018-10-09T00:05:54.230Z,14.37
2018-10-09T00:10:57.769Z,15.23
2018-10-09T00:16:01.306Z,11.00
2018-10-09T00:21:04.871Z,15.53
2018-10-09T00:26:08.469Z,15.07
2018-10-09T00:31:11.800Z,15.33
2018-10-09T00:36:15.188Z,12.57
2018-10-09T00:41:18.556Z,15.13
2018-10-09T00:46:21.960Z,18.27
2018-10-09T00:51:25.426Z,13.90
2018-10-09T00:56:28.829Z,17.13
2018-10-09T01:01:32.335Z,16.60
2018-10-09T01:06:35.769Z,16.40
2018-10-09T01:11:39.191Z,17.90
2018-10-09T01:16:42.749Z,17.13
2018-10-09T01:21:46.131Z,17.23
2018-10-09T01:26:49.535Z,16.53
2018-10-09T01:31:52.938Z,19.83
2018-10-09T01:36:56.398Z,19.73
2018-10-09T01:42:00.059Z,21.27
2018-10-09T01:47:03.707Z,19.00
2018-10-09T01:52:07.136Z,15.90
2018-10-09T01:57:10.610Z,16.47
2018-10-09T02:02:13.988Z,21.67
2018-10-09T02:07:17.567Z,20.30
2018-10-09T02:12:20.988Z,21.03
2018-10-09T02:17:24.341Z,23.13
2018-10-09T02:22:27.759Z,20.73
2018-10-09T02:27:31.176Z,24.13
2018-10-09T02:32:34.552Z,20.70
2018-10-09T02:37:37.903Z,23.23
2018-10-09T02:42:41.246Z,23.17
2018-10-09T02:47:44.576Z,20.77
2018-10-09T02:52:47.961Z,21.57
2018-10-09T02:57:51.265Z,25.40
2018-10-09T03:02:54.654Z,24.27
2018-10-09T03:07:58.088Z,25.33
2018-10-09T03:13:01.405Z,22.20
2018-10-09T03:18:04.794Z,24.83
2018-10-09T03:23:08.274Z,21.67
2018-10-09T03:28:11.675Z,27.47
2018-10-09T03:33:15.130Z,22.53
2018-10-09T03:38:18.774Z,24.47
2018-10-09T03:43:22.258Z,23.63
2018-10-09T03:48:25.738Z,23.47
2018-10-09T03:53:29.230Z,22.73
2018-10-09T03:58:32.811Z,28.70
2018-10-09T04:03:36.135Z,22.90
2018-10-09T04:08:39.461Z,22.83
2018-10-09T04:13:42.850Z,23.40
2018-10-09T04:18:46.178Z,28.00
2018-10-09T04:23:49.597Z,29.40
2018-10-09T04:28:52.970Z,22.93
2018-10-09T04:33:56.445Z,28.60
2018-10-09T04:38:59.831Z,24.00
2018-10-09T04:44:03.331Z,26.30
2018-10-09T04:49:06.828Z,28.53
2018-10-09T04:54:10.286Z,31.00
2018-10-09T04:59:13.618Z,29.97
2018-10-09T05:04:17.156Z,30.77
2018-10-09T05:09:20.776Z,29.27
2018-10-09T05:14:24.279Z,30.37
2018-10-09T05:19:27.719Z,35.70
2018-10-09T05:24:31.462Z,28.47
2018-10-09T05:29:35.096Z,26.20
2018-10-09T05:34:38.607Z,27.73
2018-10-09T05:39:42.038Z,30.40
2018-10-09T05:44:45.550Z,30.43
2018-10-09T05:49:49.036Z,30.60
2018-10-09T05:54:52.626Z,28.13
2018-10-09T05:59:56.468Z,35.10
2018-10-09T06:04:59.923Z,33.43
2018-10-09T06:10:03.703Z,30.87
2018-10-09T06:15:07.444Z,31.53
2018-10-09T06:20:10.955Z,33.63
2018-10-09T06:25:14.497Z,30.43
2018-10-09T06:30:17.916Z,31.43
2018-10-09T06:35:21.491Z,29.43
2018-10-09T06:40:24.997Z,30.93
2018-10-09T06:45:29.533Z,27.90
2018-10-09T06:50:32.929Z,29.40
2018-10-09T06:55:36.614Z,40.77
2018-10-09T07:00:39.981Z,32.87
2018-10-09T07:05:43.591Z,31.17
2018-10-09T07:10:47.109Z,31.33
2018-10-09T07:15:50.768Z,37.37
2018-10-09T07:20:54.201Z,37.37
2018-10-09T07:25:58.771Z,34.37
2018-10-09T07:31:02.665Z,34.57
2018-10-09T07:36:06.267Z,33.90
2018-10-09T07:41:10.365Z,36.47
2018-10-09T07:46:14.383Z,34.50
2018-10-09T07:51:17.986Z,35.73
2018-10-09T07:56:22.640Z,33.87
2018-10-09T08:01:26.722Z,33.27
2018-10-09T08:06:30.174Z,35.70
2018-10-09T08:11:33.771Z,30.40
2018-10-09T08:16:37.221Z,33.50
2018-10-09T08:21:40.786Z,32.10
2018-10-09T08:26:44.253Z,28.70
2018-10-09T08:31:47.921Z,36.10
2018-10-09T08:36:51.471Z,28.33
2018-10-09T08:41:55.063Z,31.10
2018-10-09T08:46:58.805Z,28.17
2018-10-09T08:52:02.648Z,24.00
2018-10-09T08:57:06.122Z,28.30
2018-10-09T09:02:10.213Z,24.27
2018-10-09T09:07:13.625Z,26.50
2018-10-09T09:12:19.197Z,27.30
2018-10-09T09:17:22.615Z,24.47
2018-10-09T09:22:26.726Z,19.27
2018-10-09T09:27:30.561Z,21.00
2018-10-09T09:32:34.070Z,27.97
2018-10-09T09:37:37.570Z,25.97
2018-10-09T09:42:40.995Z,23.97
2018-10-09T09:47:44.400Z,27.20
2018-10-09T09:52:47.840Z,27.43
2018-10-09T09:57:51.416Z,31.70
2018-10-09T10:02:54.876Z,31.53
2018-10-09T10:07:58.336Z,28.40
2018-10-09T10:13:02.094Z,33.80
2018-10-09T10:18:05.659Z,35.40
2018-10-09T10:23:09.170Z,37.40
2018-10-09T10:28:12.709Z,32.73
2018-10-09T10:33:16.153Z,31.63
2018-10-09T10:38:19.706Z,32.77
2018-10-09T10:43:23.059Z,31.60
2018-10-09T10:48:26.522Z,34.87
2018-10-09T10:53:30.013Z,29.70
2018-10-09T10:58:33.543Z,35.07
2018-10-09T11:03:36.988Z,31.67
2018-10-09T11:08:40.341Z,30.83
2018-10-09T11:13:43.719Z,27.40
2018-10-09T11:18:47.131Z,30.90
2018-10-09T11:23:50.494Z,31.47
2018-10-09T11:28:54.096Z,27.07
2018-10-09T11:33:57.524Z,27.60
2018-10-09T11:39:01.014Z,25.23
2018-10-09T11:44:04.861Z,29.63
2018-10-09T11:49:08.553Z,26.70
2018-10-09T11:54:16.761Z,25.50
2018-10-09T11:59:20.253Z,27.07
2018-10-09T12:04:25.825Z,24.87
2018-10-09T12:09:29.558Z,20.30
2018-10-09T12:14:33.167Z,25.73
2018-10-09T12:19:37.147Z,23.50
2018-10-09T12:24:40.813Z,19.93
2018-10-09T12:29:44.220Z,18.63
2018-10-09T12:34:47.840Z,20.60
2018-10-09T12:39:51.459Z,17.73
2018-10-09T12:44:55.262Z,19.60
2018-10-09T12:49:59.955Z,15.10
2018-10-09T12:55:03.908Z,17.83
2018-10-09T13:00:07.405Z,18.80
2018-10-09T13:05:11.860Z,19.20
2018-10-09T13:10:15.338Z,15.93
2018-10-09T13:15:18.964Z,21.30
2018-10-09T13:20:22.446Z,16.60
2018-10-09T13:25:25.824Z,16.27
2018-10-09T13:30:29.251Z,17.33
2018-10-09T13:35:32.770Z,15.93
2018-10-09T13:40:36.384Z,21.93
2018-10-09T13:45:39.793Z,19.10
2018-10-09T13:50:43.175Z,16.53
2018-10-09T13:55:46.771Z,14.30
2018-10-09T14:00:50.218Z,16.30
2018-10-09T14:05:53.712Z,15.87
2018-10-09T14:10:57.073Z,18.53
2018-10-09T14:16:03.321Z,20.37
2018-10-09T14:21:07.402Z,19.47
2018-10-09T14:26:10.781Z,17.60
2018-10-09T14:31:14.419Z,18.47
2018-10-09T14:36:18.207Z,17.80
2018-10-09T14:41:21.765Z,21.37
2018-10-09T14:46:25.204Z,19.13
2018-10-09T14:51:28.605Z,20.17
2018-10-09T14:56:32.412Z,20.87
2018-10-09T15:01:35.980Z,19.75
2018-10-09T15:06:39.635Z,20.13
2018-10-09T15:11:43.506Z,19.07
2018-10-09T15:16:47.085Z,18.13
2018-10-09T15:21:50.608Z,19.37
2018-10-09T15:26:54.123Z,18.27
2018-10-09T15:31:57.665Z,21.33
2018-10-09T15:37:01.836Z,24.20
2018-10-09T15:42:05.434Z,21.50
2018-10-09T15:47:09.089Z,19.23
2018-10-09T15:52:12.895Z,20.57
2018-10-09T15:57:16.387Z,18.23
2018-10-09T16:02:20.296Z,19.90
2018-10-09T16:07:23.760Z,20.20
2018-10-09T16:12:27.207Z,18.10
2018-10-09T16:17:30.646Z,18.17
2018-10-09T16:22:34.260Z,23.30
2018-10-09T16:27:37.791Z,21.33
2018-10-09T16:32:41.607Z,18.43
2018-10-09T16:37:45.090Z,23.03
2018-10-09T16:42:48.574Z,17.77
2018-10-09T16:47:52.087Z,17.80
2018-10-09T16:52:55.480Z,17.30
2018-10-09T16:57:59.196Z,19.83
2018-10-09T17:03:02.765Z,21.27
2018-10-09T17:08:06.338Z,18.93
2018-10-09T17:13:09.824Z,23.33
2018-10-09T17:18:13.601Z,19.27
2018-10-09T17:23:17.228Z,21.23
2018-10-09T17:28:20.695Z,18.13
2018-10-09T17:33:24.984Z,17.67
2018-10-09T17:38:28.682Z,20.57
2018-10-09T17:43:32.282Z,19.43
2018-10-09T17:48:36.068Z,16.10
2018-10-09T17:53:39.618Z,16.73
2018-10-09T17:58:43.081Z,17.90
2018-10-09T18:03:46.571Z,18.83
2018-10-09T18:08:50.059Z,21.80
2018-10-09T18:13:53.537Z,18.67
2018-10-09T18:18:56.942Z,29.73
2018-10-09T18:24:00.562Z,19.53
2018-10-09T18:29:04.036Z,19.83
2018-10-09T18:34:07.516Z,17.23
2018-10-09T18:39:14.006Z,20.77
2018-10-09T18:44:17.508Z,25.90
2018-10-09T18:49:21.270Z,23.13
2018-10-09T18:54:24.748Z,25.67
2018-10-09T18:59:28.109Z,19.50
2018-10-09T19:04:31.675Z,24.50
2018-10-09T19:09:35.065Z,25.00
2018-10-09T19:14:38.751Z,25.27
2018-10-09T19:19:42.340Z,20.93
2018-10-09T19:24:46.065Z,26.73
2018-10-09T19:29:49.639Z,20.90
2018-10-09T19:34:53.133Z,24.37
2018-10-09T19:39:56.580Z,26.60
2018-10-09T19:45:00.282Z,24.87
2018-10-09T19:50:05.592Z,31.13
2018-10-09T19:55:09.056Z,24.87
2018-10-09T20:00:14.971Z,27.20
2018-10-09T20:05:18.684Z,27.87
2018-10-09T20:10:22.178Z,31.53
2018-10-09T20:15:25.604Z,31.47
2018-10-09T20:20:29.049Z,38.33
2018-10-09T20:25:32.545Z,34.57
2018-10-09T20:30:36.009Z,29.23
2018-10-09T20:35:40.030Z,30.47
2018-10-09T20:40:43.393Z,34.97
2018-10-09T20:45:46.775Z,36.13
2018-10-09T20:50:50.378Z,30.03
2018-10-09T20:55:53.908Z,28.47
2018-10-09T21:00:57.385Z,31.23
2018-10-09T21:06:01.046Z,26.63
2018-10-09T21:11:04.551Z,31.33
2018-10-09T21:16:08.025Z,33.33
2018-10-09T21:21:11.764Z,30.40
2018-10-09T21:26:15.310Z,28.30
2018-10-09T21:31:18.738Z,34.07
2018-10-09T21:36:22.130Z,32.33
2018-10-09T21:41:25.500Z,32.03
2018-10-09T21:46:28.963Z,34.53
2018-10-09T21:51:32.556Z,35.87
2018-10-09T21:56:36.102Z,35.67
2018-10-09T22:01:39.633Z,37.75
2018-10-09T22:06:42.991Z,36.37
2018-10-09T22:11:46.443Z,36.13
2018-10-09T22:16:50.147Z,36.23
2018-10-09T22:21:53.598Z,33.87
2018-10-09T22:26:57.236Z,34.30
2018-10-09T22:32:00.706Z,32.00
2018-10-09T22:37:04.206Z,38.00
2018-10-09T22:42:07.632Z,34.30
2018-10-09T22:47:11.197Z,36.60
2018-10-09T22:52:14.595Z,37.33
2018-10-09T22:57:17.924Z,36.10
2018-10-09T23:02:21.453Z,36.57
2018-10-09T23:07:24.853Z,31.50
2018-10-09T23:12:28.474Z,32.83
2018-10-09T23:17:31.846Z,41.30
2018-10-09T23:22:35.393Z,31.93
2018-10-09T23:27:38.847Z,30.73
2018-10-09T23:32:42.233Z,36.97
2018-10-09T23:37:45.871Z,38.00
2018-10-09T23:42:49.535Z,34.87
2018-10-09T23:47:58.613Z,31.77
2018-10-09T23:53:02.124Z,33.60
2018-10-09T23:58:06.221Z,33.10
